地図

経路データ

SID SEASON NUMBER BASIN SUBBASIN NAME ISO_TIME NATURE LAT LON WMO_WIND WMO_PRES WMO_AGENCY TRACK_TYPE DIST2LAND LANDFALL IFLAG USA_AGENCY USA_ATCF_ID USA_LAT USA_LON USA_RECORD USA_STATUS USA_WIND USA_PRES USA_SSHS USA_R34_NE USA_R34_SE USA_R34_SW USA_R34_NW USA_R50_NE USA_R50_SE USA_R50_SW USA_R50_NW USA_R64_NE USA_R64_SE USA_R64_SW USA_R64_NW USA_POCI USA_ROCI USA_RMW USA_EYE TOKYO_LAT TOKYO_LON TOKYO_GRADE TOKYO_WIND TOKYO_PRES TOKYO_R50_DIR TOKYO_R50_LONG TOKYO_R50_SHORT TOKYO_R30_DIR TOKYO_R30_LONG TOKYO_R30_SHORT TOKYO_LAND CMA_LAT CMA_LON CMA_CAT CMA_WIND CMA_PRES HKO_LAT HKO_LON HKO_CAT HKO_WIND HKO_PRES NEWDELHI_LAT NEWDELHI_LON NEWDELHI_GRADE NEWDELHI_WIND NEWDELHI_PRES NEWDELHI_CI NEWDELHI_DP NEWDELHI_POCI REUNION_LAT REUNION_LON REUNION_TYPE REUNION_WIND REUNION_PRES REUNION_TNUM REUNION_CI REUNION_RMW REUNION_R34_NE REUNION_R34_SE REUNION_R34_SW REUNION_R34_NW REUNION_R50_NE REUNION_R50_SE REUNION_R50_SW REUNION_R50_NW REUNION_R64_NE REUNION_R64_SE REUNION_R64_SW REUNION_R64_NW BOM_LAT BOM_LON BOM_TYPE BOM_WIND BOM_PRES BOM_TNUM BOM_CI BOM_RMW BOM_R34_NE BOM_R34_SE BOM_R34_SW BOM_R34_NW BOM_R50_NE BOM_R50_SE BOM_R50_SW BOM_R50_NW BOM_R64_NE BOM_R64_SE BOM_R64_SW BOM_R64_NW BOM_ROCI BOM_POCI BOM_EYE BOM_POS_METHOD BOM_PRES_METHOD NADI_LAT NADI_LON NADI_CAT NADI_WIND NADI_PRES WELLINGTON_LAT WELLINGTON_LON WELLINGTON_WIND WELLINGTON_PRES DS824_LAT DS824_LON DS824_STAGE DS824_WIND DS824_PRES TD9636_LAT TD9636_LON TD9636_STAGE TD9636_WIND TD9636_PRES TD9635_LAT TD9635_LON TD9635_WIND TD9635_PRES TD9635_ROCI NEUMANN_LAT NEUMANN_LON NEUMANN_CLASS NEUMANN_WIND NEUMANN_PRES MLC_LAT MLC_LON MLC_CLASS MLC_WIND MLC_PRES USA_GUST BOM_GUST BOM_GUST_PER REUNION_GUST REUNION_GUST_PER USA_SEAHGT USA_SEARAD_NE USA_SEARAD_SE USA_SEARAD_SW USA_SEARAD_NW STORM_SPEED STORM_DIR
1883070S11093 1883 7 SI WA NOT_NAMED 1883-03-11 00:00:00 TS -11.4000 93.2000 main 1255 1255 _________O____ -1 -11.4000 93.2000 TC 10 168
1883070S11093 1883 7 SI WA NOT_NAMED 1883-03-11 03:00:00 TS -11.8625 93.3024 main 1299 1299 _________P____ -1 -11.8625 93.3024 TC 9 168
1883070S11093 1883 7 SI WA NOT_NAMED 1883-03-11 06:00:00 TS -12.3000 93.4000 main 1333 1333 _________O____ -1 -12.3000 93.4000 TC 9 168
1883070S11093 1883 7 SI WA NOT_NAMED 1883-03-11 09:00:00 TS -12.7000 93.4926 main 1368 1368 _________P____ -1 -12.7000 93.4926 TC 8 166
1883070S11093 1883 7 SI WA NOT_NAMED 1883-03-11 12:00:00 TS -13.1000 93.6000 main 1397 1397 _________O____ -1 -13.1000 93.6000 TC 9 164
1883070S11093 1883 7 SI WA NOT_NAMED 1883-03-11 15:00:00 TS -13.5500 93.7425 main 1423 1424 _________P____ -1 -13.5500 93.7425 TC 10 162
1883070S11093 1883 7 SI WA NOT_NAMED 1883-03-11 18:00:00 TS -14.0000 93.9000 main 1450 1450 _________O____ -1 -14.0000 93.9000 TC 9 162
1883070S11093 1883 7 SI WA NOT_NAMED 1883-03-11 21:00:00 TS -14.4000 94.0352 main 1477 1469 _________P____ -1 -14.4000 94.0352 TC 9 160
1883070S11093 1883 7 SI WA NOT_NAMED 1883-03-12 00:00:00 TS -14.8000 94.2000 main 1496 1496 _________O____ -1 -14.8000 94.2000 TC 9 156
1883070S11093 1883 7 SI WA NOT_NAMED 1883-03-12 03:00:00 TS -15.2500 94.4350 main 1514 1506 _________P____ -1 -15.2500 94.4350 TC 10 152
1883070S11093 1883 7 SI WA NOT_NAMED 1883-03-12 06:00:00 TS -15.7000 94.7000 main 1517 1516 _________O____ -1 -15.7000 94.7000 TC 10 150
1883070S11093 1883 7 SI WA NOT_NAMED 1883-03-12 09:00:00 TS -16.1150 94.9501 main 1522 1522 _________P____ -1 -16.1150 94.9501 TC 9 149
1883070S11093 1883 7 SI WA NOT_NAMED 1883-03-12 12:00:00 TS -16.5000 95.2000 main 1537 1537 _________O____ -1 -16.5000 95.2000 TC 9 148
1883070S11093 1883 7 SI WA NOT_NAMED 1883-03-12 15:00:00 TS -16.8574 95.4427 main 1553 1546 _________P____ -1 -16.8574 95.4427 TC 9 146
1883070S11093 1883 7 SI WA NOT_NAMED 1883-03-12 18:00:00 TS -17.2000 95.7000 main 1556 1556 _________O____ -1 -17.2000 95.7000 TC 9 143
1883070S11093 1883 7 SI WA NOT_NAMED 1883-03-12 21:00:00 TS -17.5499 95.9851 main 1560 1560 _________P____ -1 -17.5499 95.9851 TC 9 141
1883070S11093 1883 7 SI WA NOT_NAMED 1883-03-13 00:00:00 TS -17.9000 96.3000 main 1573 1573 _________O____ -1 -17.9000 96.3000 TC 9 139
1883070S11093 1883 7 SI WA NOT_NAMED 1883-03-13 03:00:00 TS -18.2575 96.6426 main 1589 1583 _________P____ -1 -18.2575 96.6426 TC 10 136
1883070S11093 1883 7 SI WA NOT_NAMED 1883-03-13 06:00:00 TS -18.6000 97.0000 main 1592 1589 _________O____ -1 -18.6000 97.0000 TC 9 135
1883070S11093 1883 7 SI WA NOT_NAMED 1883-03-13 09:00:00 TS -18.9224 97.3426 main 1602 1596 _________P____ -1 -18.9224 97.3426 TC 9 132
1883070S11093 1883 7 SI WA NOT_NAMED 1883-03-13 12:00:00 TS -19.2000 97.7000 main 1607 1602 _________O____ -1 -19.2000 97.7000 TC 9 125
1883070S11093 1883 7 SI WA NOT_NAMED 1883-03-13 15:00:00 TS -19.4225 98.0926 main 1606 1600 _________P____ -1 -19.4225 98.0926 TC 9 118
1883070S11093 1883 7 SI WA NOT_NAMED 1883-03-13 18:00:00 TS -19.6000 98.5000 main 1600 1557 _________O____ -1 -19.6000 98.5000 TC 8 114
1883070S11093 1883 7 SI WA NOT_NAMED 1883-03-13 21:00:00 TS -19.7552 98.9024 main 1554 1511 _________P____ -1 -19.7552 98.9024 TC 8 112
1883070S11093 1883 7 SI WA NOT_NAMED 1883-03-14 00:00:00 TS -19.9000 99.3000 main 1511 _________O____ -1 -19.9000 99.3000 TC 8 111

IBTrACS Databaseについて

本データベースは、米国NOAAが公開する1842年以降の世界の熱帯低気圧のベストトラックデータアーカイブInternational Best Track Archive for Climate Stewardship (IBTrACS)を、ウェブで閲覧しやすい形式に変換したものです。

最終更新日:2021-11-26